createdAt,value
2022-12-27T00:01:14.065Z,78.11
2022-12-27T00:03:42.376Z,78.45
2022-12-27T00:06:11.729Z,78.36
2022-12-27T00:08:39.524Z,78.62
2022-12-27T00:11:11.388Z,78.36
2022-12-27T00:13:39.102Z,78.48
2022-12-27T00:16:09.315Z,78.35
2022-12-27T00:18:37.779Z,78.45
2022-12-27T00:21:07.416Z,78.41
2022-12-27T00:23:37.686Z,78.55
2022-12-27T00:26:10.212Z,79.14
2022-12-27T00:28:39.536Z,79.19
2022-12-27T00:31:07.327Z,79.15
2022-12-27T00:33:37.576Z,79.19
2022-12-27T00:36:07.665Z,79.40
2022-12-27T00:38:36.397Z,79.69
2022-12-27T00:41:04.318Z,79.56
2022-12-27T00:43:32.489Z,79.85
2022-12-27T00:46:02.247Z,79.47
2022-12-27T00:48:30.612Z,79.81
2022-12-27T00:51:00.267Z,80.25
2022-12-27T00:53:29.116Z,80.29
2022-12-27T00:55:57.351Z,80.03
2022-12-27T00:58:25.722Z,80.42
2022-12-27T01:00:54.198Z,80.54
2022-12-27T01:03:23.389Z,80.21
2022-12-27T01:05:51.106Z,80.51
2022-12-27T01:08:18.807Z,80.55
2022-12-27T01:10:46.518Z,80.70
2022-12-27T01:13:14.335Z,80.94
2022-12-27T01:15:43.107Z,80.87
2022-12-27T01:18:10.854Z,81.33
2022-12-27T01:20:40.144Z,81.32
2022-12-27T01:23:07.965Z,81.06
2022-12-27T01:25:35.684Z,81.06
2022-12-27T01:28:03.416Z,81.38
2022-12-27T01:30:31.405Z,81.81
2022-12-27T01:33:01.169Z,81.72
2022-12-27T01:35:29.022Z,81.60
2022-12-27T01:37:58.193Z,81.37
2022-12-27T01:40:26.436Z,81.85
2022-12-27T01:42:53.267Z,81.95
2022-12-27T01:45:22.530Z,81.81
2022-12-27T01:47:55.567Z,81.92
2022-12-27T01:50:28.936Z,82.32
2022-12-27T01:53:06.347Z,82.27
2022-12-27T01:55:40.671Z,82.40
2022-12-27T01:58:12.597Z,82.63
2022-12-27T02:00:43.929Z,82.53
2022-12-27T02:03:12.935Z,82.65
2022-12-27T02:05:42.708Z,82.62
2022-12-27T02:08:23.730Z,82.75
2022-12-27T02:10:52.274Z,82.76
2022-12-27T02:13:20.877Z,82.87
2022-12-27T02:15:48.669Z,83.15
2022-12-27T02:18:16.988Z,83.18
2022-12-27T02:21:12.555Z,83.16
2022-12-27T02:24:06.919Z,83.22
2022-12-27T02:26:54.424Z,83.62
2022-12-27T02:29:56.980Z,83.41
2022-12-27T02:32:30.703Z,83.26
2022-12-27T02:35:09.418Z,83.66
2022-12-27T02:37:42.531Z,83.84
2022-12-27T02:40:30.014Z,83.58
2022-12-27T02:43:16.057Z,83.61
2022-12-27T02:46:11.233Z,83.96
2022-12-27T02:48:56.387Z,83.87
2022-12-27T02:51:50.613Z,84.09
2022-12-27T02:54:37.379Z,84.09
2022-12-27T02:57:12.416Z,84.28
2022-12-27T03:00:25.729Z,84.69
2022-12-27T03:03:24.003Z,84.78
2022-12-27T03:06:41.704Z,85.36
2022-12-27T03:09:48.278Z,85.13
2022-12-27T03:12:42.641Z,85.25
2022-12-27T03:15:39.288Z,85.62
2022-12-27T03:18:14.882Z,85.80
2022-12-27T03:21:03.524Z,85.73
2022-12-27T03:23:49.292Z,85.78
2022-12-27T03:26:19.758Z,86.12
2022-12-27T03:29:07.767Z,85.84
2022-12-27T03:31:56.852Z,86.33
2022-12-27T03:34:35.892Z,86.00
2022-12-27T03:37:29.399Z,85.90
2022-12-27T03:40:04.617Z,86.17
2022-12-27T03:42:53.793Z,86.39
2022-12-27T03:45:42.706Z,86.75
2022-12-27T03:48:12.300Z,86.80
2022-12-27T03:50:47.641Z,86.39
2022-12-27T03:53:21.488Z,86.92
2022-12-27T03:55:49.838Z,86.58
2022-12-27T03:58:17.761Z,86.72
2022-12-27T04:00:45.661Z,86.95
2022-12-27T04:03:13.362Z,86.72
2022-12-27T04:05:42.417Z,86.68
2022-12-27T04:08:27.845Z,86.92
2022-12-27T04:11:13.153Z,87.17
2022-12-27T04:13:58.499Z,87.19
2022-12-27T04:16:43.599Z,87.45
2022-12-27T04:19:28.959Z,87.46
2022-12-27T04:22:15.294Z,87.71
2022-12-27T04:25:00.456Z,87.48
2022-12-27T04:27:45.506Z,87.56
2022-12-27T04:30:31.246Z,87.33
2022-12-27T04:33:16.573Z,87.36
2022-12-27T04:35:44.248Z,87.88
2022-12-27T04:38:13.260Z,87.74
2022-12-27T04:40:54.866Z,87.84
2022-12-27T04:43:40.323Z,87.68
2022-12-27T04:46:32.532Z,87.63
2022-12-27T04:49:17.967Z,87.92
2022-12-27T04:52:02.913Z,87.50
2022-12-27T04:54:49.709Z,87.70
2022-12-27T04:57:17.347Z,87.43
2022-12-27T05:00:02.436Z,87.48
2022-12-27T05:02:30.276Z,87.65
2022-12-27T05:04:58.179Z,87.58
2022-12-27T05:07:43.822Z,87.66
2022-12-27T05:10:30.737Z,87.66
2022-12-27T05:13:16.050Z,87.71
2022-12-27T05:15:43.843Z,87.65
2022-12-27T05:18:11.533Z,87.44
2022-12-27T05:20:39.196Z,88.17
2022-12-27T05:23:24.295Z,87.66
2022-12-27T05:25:53.320Z,87.63
2022-12-27T05:28:21.034Z,87.51
2022-12-27T05:30:48.880Z,87.53
2022-12-27T05:33:16.595Z,87.17
2022-12-27T05:35:44.408Z,87.50
2022-12-27T05:38:12.211Z,87.35
2022-12-27T05:40:39.911Z,87.54
2022-12-27T05:43:08.999Z,86.94
2022-12-27T05:45:36.667Z,87.06
2022-12-27T05:48:04.725Z,87.30
2022-12-27T05:50:32.470Z,87.09
2022-12-27T05:53:00.132Z,87.36
2022-12-27T05:55:27.849Z,87.44
2022-12-27T05:57:55.638Z,87.38
2022-12-27T06:00:24.772Z,87.30
2022-12-27T06:02:52.602Z,87.22
2022-12-27T06:05:20.410Z,87.50
2022-12-27T06:07:48.111Z,87.50
2022-12-27T06:10:15.727Z,87.69
2022-12-27T06:12:43.466Z,87.93
2022-12-27T06:15:12.067Z,87.83
2022-12-27T06:17:41.115Z,87.78
2022-12-27T06:20:09.739Z,87.99
2022-12-27T06:22:37.423Z,87.88
2022-12-27T06:25:07.900Z,87.90
2022-12-27T06:27:38.596Z,87.59
2022-12-27T06:30:07.734Z,87.54
2022-12-27T06:32:36.151Z,88.27
2022-12-27T06:35:06.041Z,87.90
2022-12-27T06:37:33.790Z,87.85
2022-12-27T06:40:01.467Z,87.87
2022-12-27T06:42:30.822Z,87.85
2022-12-27T06:44:58.555Z,88.05
2022-12-27T06:47:26.243Z,88.02
2022-12-27T06:49:54.136Z,87.92
2022-12-27T06:52:23.814Z,88.31
2022-12-27T06:54:51.469Z,88.44
2022-12-27T06:57:19.171Z,88.38
2022-12-27T06:59:52.379Z,88.52
2022-12-27T07:02:21.773Z,88.19
2022-12-27T07:04:49.600Z,88.09
2022-12-27T07:07:17.270Z,88.43
2022-12-27T07:09:46.345Z,88.26
2022-12-27T07:12:17.389Z,88.08
2022-12-27T07:14:45.059Z,88.07
2022-12-27T07:17:12.763Z,88.06
2022-12-27T07:19:40.402Z,88.17
2022-12-27T07:22:08.142Z,88.24
2022-12-27T07:24:35.906Z,88.54
2022-12-27T07:27:05.266Z,88.33
2022-12-27T07:29:33.006Z,88.20
2022-12-27T07:32:00.710Z,88.34
2022-12-27T07:34:28.420Z,88.43
2022-12-27T07:36:56.312Z,88.53
2022-12-27T07:39:24.026Z,88.44
2022-12-27T07:41:51.689Z,88.39
2022-12-27T07:44:20.814Z,88.60
2022-12-27T07:46:48.666Z,88.70
2022-12-27T07:49:18.059Z,88.77
2022-12-27T07:51:46.053Z,88.73
2022-12-27T07:54:13.741Z,88.95
2022-12-27T07:56:41.513Z,89.04
2022-12-27T07:59:12.837Z,88.90
2022-12-27T08:02:03.674Z,89.17
2022-12-27T08:04:33.208Z,88.83
2022-12-27T08:07:05.292Z,88.96
2022-12-27T08:09:36.356Z,89.03
2022-12-27T08:12:04.079Z,88.67
2022-12-27T08:14:31.766Z,89.07
2022-12-27T08:17:06.711Z,88.93
2022-12-27T08:19:34.460Z,89.21
2022-12-27T08:22:02.187Z,88.87
2022-12-27T08:24:29.845Z,88.83
2022-12-27T08:26:57.525Z,89.18
2022-12-27T08:29:25.698Z,89.00
2022-12-27T08:31:53.644Z,89.04
2022-12-27T08:34:22.776Z,88.77
2022-12-27T08:36:56.195Z,88.70
2022-12-27T08:39:24.317Z,88.43
2022-12-27T08:41:53.762Z,88.52
2022-12-27T08:44:21.551Z,88.53
2022-12-27T08:46:49.208Z,88.25
2022-12-27T08:49:16.882Z,88.43
2022-12-27T08:51:45.941Z,88.32
2022-12-27T08:54:13.671Z,88.31
2022-12-27T08:56:41.312Z,88.54
2022-12-27T08:59:09.155Z,88.04
2022-12-27T09:01:36.959Z,88.18
2022-12-27T09:04:05.169Z,88.13
2022-12-27T09:06:32.937Z,88.39
2022-12-27T09:09:02.026Z,88.55
2022-12-27T09:11:31.835Z,88.41
2022-12-27T09:14:00.630Z,88.32
2022-12-27T09:16:29.572Z,88.29
2022-12-27T09:18:58.953Z,88.15
2022-12-27T09:21:29.869Z,88.02
2022-12-27T09:23:57.649Z,87.99
2022-12-27T09:26:29.042Z,87.93
2022-12-27T09:28:57.922Z,88.25
2022-12-27T09:31:26.555Z,87.91
2022-12-27T09:33:54.931Z,87.81
2022-12-27T09:36:24.908Z,88.20
2022-12-27T09:38:54.273Z,88.22
2022-12-27T09:42:33.748Z,88.01
2022-12-27T09:44:24.084Z,87.75
2022-12-27T09:46:55.896Z,87.83
2022-12-27T09:49:34.663Z,87.93
2022-12-27T09:52:05.982Z,87.76
2022-12-27T09:54:39.983Z,87.58
2022-12-27T09:57:20.432Z,87.55
2022-12-27T09:59:52.935Z,87.43
2022-12-27T10:02:23.029Z,87.18
2022-12-27T10:07:50.639Z,87.71
2022-12-27T10:10:27.230Z,87.32
2022-12-27T10:13:11.300Z,87.35
2022-12-27T10:15:49.907Z,87.15
2022-12-27T10:18:29.077Z,87.19
2022-12-27T10:21:05.799Z,87.17
2022-12-27T10:23:37.449Z,86.60
2022-12-27T10:26:07.531Z,86.83
2022-12-27T10:28:40.568Z,86.86
2022-12-27T10:31:15.417Z,86.44
2022-12-27T10:33:43.640Z,86.41
2022-12-27T10:36:15.854Z,86.58
2022-12-27T10:38:43.655Z,86.25
2022-12-27T10:41:26.053Z,86.25
2022-12-27T10:43:55.866Z,85.97
2022-12-27T10:46:32.421Z,86.23
2022-12-27T10:51:52.723Z,85.76
2022-12-27T10:54:24.473Z,85.88
2022-12-27T10:56:52.341Z,86.08
2022-12-27T10:59:22.749Z,85.63
2022-12-27T11:02:16.283Z,85.83
2022-12-27T11:04:59.933Z,85.28
2022-12-27T11:07:31.886Z,85.07
2022-12-27T11:10:16.687Z,84.95
2022-12-27T11:13:00.120Z,84.92
2022-12-27T11:15:30.239Z,84.84
2022-12-27T11:18:01.812Z,84.89
2022-12-27T11:20:33.084Z,84.66
2022-12-27T11:23:03.538Z,84.70
2022-12-27T11:25:32.606Z,84.37
2022-12-27T11:28:03.987Z,84.51
2022-12-27T11:30:34.728Z,84.24
2022-12-27T11:33:06.946Z,84.34
2022-12-27T11:35:46.307Z,84.10
2022-12-27T11:38:23.959Z,83.78
2022-12-27T11:41:00.928Z,83.71
2022-12-27T11:43:34.830Z,83.74
2022-12-27T11:46:06.701Z,83.52
2022-12-27T11:48:40.624Z,83.55
2022-12-27T11:51:38.535Z,83.25
2022-12-27T11:54:29.804Z,83.06
2022-12-27T11:57:11.466Z,83.25
2022-12-27T11:59:54.017Z,82.55
2022-12-27T12:02:43.107Z,81.98
2022-12-27T12:05:44.489Z,82.36
2022-12-27T12:08:34.713Z,82.00
2022-12-27T12:11:14.722Z,82.45
2022-12-27T12:14:33.155Z,82.06
2022-12-27T12:17:22.460Z,81.72
2022-12-27T12:20:07.294Z,81.82
2022-12-27T12:22:46.245Z,82.04
2022-12-27T12:25:44.571Z,82.05
2022-12-27T12:28:59.198Z,82.00
2022-12-27T12:32:02.729Z,82.21
2022-12-27T12:34:38.195Z,82.21
2022-12-27T12:37:17.729Z,82.54
2022-12-27T12:40:08.175Z,82.73
2022-12-27T12:42:44.340Z,82.36
2022-12-27T12:45:44.590Z,82.46
2022-12-27T12:48:38.214Z,82.42
2022-12-27T12:51:31.817Z,82.65
2022-12-27T12:54:09.012Z,82.89
2022-12-27T12:56:59.836Z,82.86
2022-12-27T12:59:49.993Z,83.14
2022-12-27T13:02:38.295Z,83.04
2022-12-27T13:05:16.440Z,82.91
2022-12-27T13:07:57.020Z,82.89
2022-12-27T13:11:06.458Z,83.11
2022-12-27T13:13:46.126Z,82.76
2022-12-27T13:16:25.262Z,82.97
2022-12-27T13:19:06.747Z,83.15
2022-12-27T13:21:52.397Z,83.19
2022-12-27T13:24:29.938Z,82.41
2022-12-27T13:27:08.032Z,82.77
2022-12-27T13:29:51.326Z,82.62
2022-12-27T13:32:36.493Z,82.43
2022-12-27T13:35:20.800Z,82.23
2022-12-27T13:37:57.125Z,82.35
2022-12-27T13:40:44.374Z,82.15
2022-12-27T13:43:27.957Z,81.74
2022-12-27T13:46:13.396Z,81.77
2022-12-27T13:49:03.573Z,81.72
2022-12-27T13:51:44.908Z,81.70
2022-12-27T13:54:39.503Z,81.21
2022-12-27T13:57:18.537Z,81.04
2022-12-27T14:00:05.130Z,81.32
2022-12-27T14:03:06.176Z,80.80
2022-12-27T14:06:17.402Z,80.95
2022-12-27T14:09:19.804Z,81.01
2022-12-27T14:11:58.284Z,81.31
2022-12-27T14:14:28.654Z,81.15
2022-12-27T14:17:21.380Z,81.17
2022-12-27T14:20:12.190Z,81.01
2022-12-27T14:23:12.452Z,81.43
2022-12-27T14:26:13.405Z,81.15
2022-12-27T14:29:10.176Z,81.44
2022-12-27T14:32:11.875Z,81.80
2022-12-27T14:35:05.493Z,81.51
2022-12-27T14:38:02.195Z,82.00
2022-12-27T14:40:48.709Z,81.93
2022-12-27T14:43:50.972Z,82.17
2022-12-27T14:46:54.410Z,82.33
2022-12-27T14:49:57.037Z,82.18
2022-12-27T14:53:09.196Z,82.77
2022-12-27T14:55:56.795Z,82.51
2022-12-27T14:58:47.460Z,82.72
2022-12-27T15:01:26.814Z,82.55
2022-12-27T15:04:05.053Z,82.50
2022-12-27T15:06:51.481Z,82.42
2022-12-27T15:09:30.658Z,82.75
2022-12-27T15:12:10.106Z,82.47
2022-12-27T15:14:53.954Z,82.47
2022-12-27T15:17:32.727Z,82.40
2022-12-27T15:20:24.815Z,82.19
2022-12-27T15:23:05.184Z,81.90
2022-12-27T15:25:48.290Z,81.76
2022-12-27T15:28:26.427Z,81.51
2022-12-27T15:31:00.144Z,81.76
2022-12-27T15:33:37.558Z,81.62
2022-12-27T15:36:10.792Z,81.44
2022-12-27T15:38:51.204Z,81.00
2022-12-27T15:41:32.535Z,81.32
2022-12-27T15:44:26.132Z,80.78
2022-12-27T15:47:24.601Z,80.84
2022-12-27T15:50:13.504Z,80.87
2022-12-27T15:53:00.607Z,80.42
2022-12-27T15:55:47.792Z,80.18
2022-12-27T15:58:17.988Z,80.37
2022-12-27T16:01:07.647Z,80.67
2022-12-27T16:03:38.490Z,80.51
2022-12-27T16:06:07.954Z,80.46
2022-12-27T16:08:40.707Z,80.67
2022-12-27T16:11:11.673Z,80.04
2022-12-27T16:13:50.355Z,79.85
2022-12-27T16:16:57.640Z,79.70
2022-12-27T16:19:48.651Z,80.33
2022-12-27T16:22:25.603Z,79.70
2022-12-27T16:24:53.442Z,79.30
2022-12-27T16:27:28.493Z,79.67
2022-12-27T16:29:56.863Z,80.06
2022-12-27T16:32:26.347Z,79.80
2022-12-27T16:35:09.791Z,79.79
2022-12-27T16:37:45.156Z,79.43
2022-12-27T16:40:39.765Z,79.65
2022-12-27T16:43:50.256Z,79.40
2022-12-27T16:46:42.420Z,79.23
2022-12-27T16:49:33.396Z,79.62
2022-12-27T16:52:20.739Z,79.28
2022-12-27T16:54:55.590Z,79.17
2022-12-27T16:57:35.194Z,79.11
2022-12-27T17:00:06.524Z,78.83
2022-12-27T17:02:41.879Z,78.63
2022-12-27T17:05:58.675Z,77.34
2022-12-27T17:08:32.932Z,77.27
2022-12-27T17:11:23.742Z,77.12
2022-12-27T17:13:55.669Z,76.57
2022-12-27T17:16:26.360Z,76.70
2022-12-27T17:18:57.940Z,76.89
2022-12-27T17:21:30.736Z,76.68
2022-12-27T17:24:02.610Z,76.39
2022-12-27T17:26:55.507Z,76.67
2022-12-27T17:29:31.756Z,76.20
2022-12-27T17:32:06.733Z,75.93
2022-12-27T17:34:47.142Z,76.42
2022-12-27T17:37:20.150Z,75.80
2022-12-27T17:40:03.303Z,75.88
2022-12-27T17:42:53.895Z,76.12
2022-12-27T17:45:34.019Z,76.13
2022-12-27T17:48:13.128Z,75.59
2022-12-27T17:50:44.728Z,76.06
2022-12-27T17:53:39.201Z,75.83
2022-12-27T17:56:35.848Z,76.19
2022-12-27T17:59:09.618Z,76.58
2022-12-27T18:01:43.044Z,76.21
2022-12-27T18:04:20.880Z,76.39
2022-12-27T18:06:48.856Z,76.58
2022-12-27T18:09:37.393Z,76.45
2022-12-27T18:12:13.222Z,76.22
2022-12-27T18:14:41.242Z,76.50
2022-12-27T18:17:26.873Z,76.48
2022-12-27T18:19:56.573Z,76.67
2022-12-27T18:22:24.422Z,76.88
2022-12-27T18:24:52.216Z,76.67
2022-12-27T18:27:25.355Z,77.00
2022-12-27T18:29:53.035Z,77.09
2022-12-27T18:32:21.213Z,77.09
2022-12-27T18:34:53.003Z,77.23
2022-12-27T18:37:23.388Z,76.96
2022-12-27T18:39:53.936Z,77.23
2022-12-27T18:42:30.897Z,77.56
2022-12-27T18:45:02.941Z,77.32
2022-12-27T18:47:30.873Z,77.45
2022-12-27T18:50:00.633Z,77.13
2022-12-27T18:52:32.733Z,77.11
2022-12-27T18:55:13.825Z,77.14
2022-12-27T18:57:42.986Z,77.26
2022-12-27T19:00:17.872Z,77.21
2022-12-27T19:02:46.409Z,77.47
2022-12-27T19:05:26.901Z,77.37
2022-12-27T19:08:00.593Z,76.76
2022-12-27T19:10:30.339Z,77.06
2022-12-27T19:12:59.565Z,77.01
2022-12-27T19:15:29.713Z,76.89
2022-12-27T19:18:00.472Z,77.00
2022-12-27T19:20:30.493Z,76.97
2022-12-27T19:23:01.849Z,76.46
2022-12-27T19:25:31.983Z,76.66
2022-12-27T19:28:06.559Z,76.56
2022-12-27T19:30:37.243Z,76.71
2022-12-27T19:33:09.709Z,76.61
2022-12-27T19:35:37.458Z,76.66
2022-12-27T19:38:06.052Z,76.68
2022-12-27T19:40:34.000Z,76.69
2022-12-27T19:43:01.721Z,76.69
2022-12-27T19:45:30.879Z,76.91
2022-12-27T19:47:58.757Z,77.10
2022-12-27T19:50:31.460Z,76.84
2022-12-27T19:52:59.796Z,76.88
2022-12-27T19:55:28.465Z,76.63
2022-12-27T19:57:56.176Z,76.21
2022-12-27T20:00:24.669Z,76.45
2022-12-27T20:02:54.218Z,76.40
2022-12-27T20:06:12.443Z,76.29
2022-12-27T20:08:25.903Z,76.37
2022-12-27T20:10:53.992Z,76.04
2022-12-27T20:13:22.244Z,76.19
2022-12-27T20:15:50.762Z,76.12
2022-12-27T20:18:20.237Z,75.65
2022-12-27T20:20:48.418Z,75.16
2022-12-27T20:23:16.852Z,75.42
2022-12-27T20:25:46.528Z,75.26
2022-12-27T20:28:15.396Z,75.20
2022-12-27T20:30:44.917Z,75.32
2022-12-27T20:33:13.110Z,75.04
2022-12-27T20:35:42.357Z,74.96
2022-12-27T20:38:11.691Z,75.24
2022-12-27T20:40:40.562Z,75.06
2022-12-27T20:43:08.289Z,75.15
2022-12-27T20:45:36.856Z,75.14
2022-12-27T20:48:09.280Z,75.26
2022-12-27T20:50:37.182Z,75.12
2022-12-27T20:53:06.461Z,74.93
2022-12-27T20:55:34.741Z,75.28
2022-12-27T20:58:02.792Z,75.45
2022-12-27T21:00:30.454Z,75.22
2022-12-27T21:02:58.399Z,75.23
2022-12-27T21:05:26.215Z,75.32
2022-12-27T21:07:53.938Z,75.55
2022-12-27T21:10:23.263Z,75.51
2022-12-27T21:12:51.238Z,75.58
2022-12-27T21:15:19.165Z,75.62
2022-12-27T21:17:47.251Z,75.67
2022-12-27T21:20:15.066Z,75.42
2022-12-27T21:22:42.813Z,75.54
2022-12-27T21:25:10.877Z,75.42
2022-12-27T21:27:39.919Z,75.68
2022-12-27T21:30:08.866Z,75.66
2022-12-27T21:32:36.614Z,75.77
2022-12-27T21:35:04.344Z,76.10
2022-12-27T21:37:32.016Z,75.78
2022-12-27T21:39:59.813Z,75.57
2022-12-27T21:42:27.467Z,75.87
2022-12-27T21:44:56.521Z,75.54
2022-12-27T21:47:26.008Z,75.46
2022-12-27T21:49:53.638Z,75.13
2022-12-27T21:52:21.301Z,75.23
2022-12-27T21:54:49.045Z,74.95
2022-12-27T21:57:16.735Z,74.87
2022-12-27T21:59:44.382Z,74.82
2022-12-27T22:02:13.619Z,74.88
2022-12-27T22:04:41.411Z,74.82
2022-12-27T22:07:09.131Z,75.15
2022-12-27T22:09:37.022Z,74.60
2022-12-27T22:12:04.965Z,75.25
2022-12-27T22:14:36.890Z,74.85
2022-12-27T22:17:04.943Z,74.68
2022-12-27T22:19:34.035Z,74.87
2022-12-27T22:22:01.762Z,74.77
2022-12-27T22:24:29.468Z,74.88
2022-12-27T22:26:57.178Z,74.69
2022-12-27T22:29:24.979Z,74.76
2022-12-27T22:31:52.706Z,74.77
2022-12-27T22:34:20.404Z,74.69
2022-12-27T22:36:53.068Z,74.41
2022-12-27T22:39:20.835Z,74.47
2022-12-27T22:41:48.516Z,74.49
2022-12-27T22:44:16.241Z,74.43
2022-12-27T22:47:15.707Z,74.65
2022-12-27T22:49:31.841Z,74.20
2022-12-27T22:52:00.836Z,74.37
2022-12-27T22:55:05.879Z,74.09
2022-12-27T22:57:16.176Z,74.27
2022-12-27T22:59:44.250Z,74.05
2022-12-27T23:02:12.093Z,74.23
2022-12-27T23:04:40.019Z,74.36
2022-12-27T23:07:09.143Z,74.48
2022-12-27T23:09:42.905Z,74.08
2022-12-27T23:12:11.301Z,74.37
2022-12-27T23:14:39.100Z,74.25
2022-12-27T23:17:06.842Z,74.45
2022-12-27T23:19:34.518Z,74.51
2022-12-27T23:22:02.144Z,74.63
2022-12-27T23:24:31.189Z,74.76
2022-12-27T23:26:58.833Z,74.72
2022-12-27T23:29:26.591Z,74.58
2022-12-27T23:31:55.685Z,74.65
2022-12-27T23:34:28.586Z,74.74
2022-12-27T23:36:57.093Z,74.76
2022-12-27T23:39:24.912Z,75.03
2022-12-27T23:41:53.950Z,74.62
2022-12-27T23:44:26.473Z,74.93
2022-12-27T23:47:02.525Z,74.91
2022-12-27T23:49:30.832Z,74.67
2022-12-27T23:51:58.609Z,74.97
2022-12-27T23:54:26.292Z,74.82
2022-12-27T23:56:55.348Z,74.82
2022-12-27T23:59:23.026Z,75.09
